• Join FlightAware (Why Join?)
  • Login
  • US Flag 
Rudolph Flight #1: Arrived! 
03:16AM EST


 

Airport Tracker/Info


-or-


 

Live Flight TrackerFlight Track Log ✈ N788BG ✈ 19-Jun-2013 ✈ KHTS - 1G0

Flight Track Log - Related Links

Times and Time Zones

All times are in EDT time to prevent confusion due to time zone crossing. See the N788BG flight status page for this flight to view local times or setup timezone preferences in your user account.

Time Position Orientation Groundspeed Altitude Reporting Facility
EDT Latitude Longitude Course Direction KTS MPH feet Rate Location/Type
03:16PM 38.4844 -82.6067 345° North 102 117 5,000  Level Indianapolis Center
03:17PM 38.5131 -82.6167 345° North 104 120 6,000 720 Climbing Indianapolis Center
03:18PM 38.5428 -82.6297 341° North 109 125 6,600 600 Climbing Indianapolis Center
03:19PM 38.5725 -82.6414 343° North 111 128 7,300 660 Climbing Indianapolis Center
03:20PM 38.6028 -82.6528 344° North 113 130 8,000 720 Climbing Indianapolis Center
03:21PM 38.6369 -82.6633 346° North 107 123 8,800 600 Climbing Indianapolis Center
03:22PM 38.6650 -82.6742 343° North 111 128 9,300 420 Climbing Indianapolis Center
03:23PM 38.6953 -82.6875 341° North 114 131 9,700 240 Climbing Indianapolis Center
03:24PM 38.7269 -82.6983 345° North 118 136 9,900 120 Climbing Indianapolis Center
03:25PM 38.7639 -82.7128 343° North 135 155 10,000  Climbing Indianapolis Center
03:26PM 38.8122 -82.7258 348° North 148 170 10,000  Level Indianapolis Center
03:27PM 38.8525 -82.7369 348° North 149 171 10,000 -60 Level Indianapolis Center
03:29PM 38.9041 -82.7521 347° North  Level FlightAware Approximate
03:29PM 38.9311 -82.7697 347° North 149 171 9,900  Level Indianapolis Center
03:30PM 38.9714 -82.7789 350° North 148 170 9,900  Level Indianapolis Center
03:31PM 39.0111 -82.7914 346° North 145 167 10,000  Climbing Indianapolis Center
03:32PM 39.0511 -82.8092 341° North 151 174 9,900 -60 Descending Indianapolis Center
03:33PM 39.0989 -82.8267 344° North 150 173 9,900 -60 Level Indianapolis Center
03:34PM 39.1394 -82.8378 348° North 151 174 9,800  Descending Indianapolis Center
03:35PM 39.1789 -82.8503 346° North 147 169 10,000 60 Climbing Indianapolis Center
03:36PM 39.2183 -82.8622 347° North 147 169 10,000  Level Indianapolis Center
03:37PM 39.2617 -82.8778 344° North 144 166 10,000  Level Indianapolis Center
03:38PM 39.2967 -82.8864 349° North 143 165 10,000  Level Indianapolis Center
03:39PM 39.3408 -82.9039 343° North 143 165 10,000  Level Indianapolis Center
03:41PM 39.3844 -82.9214 343° North 141 162 10,000  Level Indianapolis Center
03:42PM 39.4172 -82.9325 345° North 141 162 10,100  Climbing Indianapolis Center
03:43PM 39.4597 -82.9514 341° North 141 162 10,100  Level Indianapolis Center
03:44PM 39.4986 -82.9639 346° North 143 165 10,100 -120 Level Indianapolis Center
03:45PM 39.5378 -82.9739 349° North 146 168 9,900  Descending Indianapolis Center
03:46PM 39.5806 -82.9858 348° North 145 167 10,100 60 Climbing Indianapolis Center
03:47PM 39.6194 -82.9997 345° North 143 165 10,100  Level Indianapolis Center
03:48PM 39.6586 -83.0144 344° North 146 168 10,100 -60 Level Indianapolis Center
03:49PM 39.6972 -83.0300 343° North 147 169 10,000 -60 Descending Indianapolis Center
03:50PM 39.7361 -83.0425 346° North 147 169 10,000  Level Indianapolis Center
03:51PM 39.7750 -83.0553 346° North 142 163 10,100  Climbing Indianapolis Center
03:52PM 39.8136 -83.0733 340° North 145 167 10,100 -60 Level Indianapolis Center
03:53PM 39.8547 -83.0833 349° North 144 166 10,000 -60 Descending Indianapolis Center
03:54PM 39.8936 -83.0933 349° North 143 165 10,000  Level Indianapolis Center
03:55PM 39.9344 -83.1117 341° North 147 169 10,000  Level Indianapolis Center
03:56PM 39.9753 -83.1247 346° North 146 168 10,000  Level Indianapolis Center
03:57PM 40.0097 -83.1397 342° North 146 168 10,000  Level Indianapolis Center
03:58PM 40.0550 -83.1531 347° North 143 165 10,000  Level Indianapolis Center
03:59PM 40.0894 -83.1681 342° North 141 162 10,000  Level Indianapolis Center
04:00PM 40.1286 -83.1781 349° North 147 169 10,000  Level Indianapolis Center
04:01PM 40.1700 -83.1858 352° North 145 167 10,000  Level Indianapolis Center
04:02PM 40.2086 -83.2014 343° North 143 165 10,000  Level Indianapolis Center
04:03PM 40.2489 -83.2225 338° Northwest 148 170 10,000  Level Indianapolis Center
04:04PM 40.2878 -83.2353 346° North 144 166 10,000  Level Indianapolis Center
04:05PM 40.3381 -83.2514 346° North 148 170 10,000  Level Indianapolis Center
04:06PM 40.3844 -83.2675 345° North 148 170 10,000 -60 Level Indianapolis Center
04:07PM 40.4244 -83.2822 344° North 148 170 9,900  Descending Indianapolis Center
04:08PM 40.4628 -83.2958 345° North 142 163 10,000  Climbing Indianapolis Center
04:09PM 40.5033 -83.3092 346° North 148 170 10,000 -240 Level Indianapolis Center
04:11PM 40.5436 -83.3228 346° North 148 170 9,600 -420 Descending Indianapolis Center
04:12PM 40.5864 -83.3458 338° Northwest 160 184 9,200 -420 Descending Indianapolis Center
04:13PM 40.6283 -83.3639 342° North 160 184 8,800 -360 Descending Indianapolis Center
04:14PM 40.6825 -83.3794 348° North 167 192 8,500 -420 Descending Indianapolis Center
04:15PM 40.7264 -83.3969 343° North 165 190 8,000 -540 Descending Indianapolis Center
04:16PM 40.7750 -83.4056 352° North 172 198 7,400 -540 Descending Indianapolis Center
04:17PM 40.8228 -83.4147 352° North 174 200 6,900 -540 Descending Indianapolis Center
04:18PM 40.8697 -83.4314 345° North 174 200 6,400 -540 Descending Indianapolis Center